Time;durP1;ratioP1;P1;durP2;ratioP2;P2;SDS_P1;SDS_P2;PMS_P1;PMS_P2;Temp;Humidity;BMP_temperature;BMP_pressure;BME280_temperature;BME280_humidity;BME280_pressure;Samples;Min_cycle;Max_cycle;Signal;HPM_P1;HPM_P2
2022/12/07 00:00:48;;;;;;;;;;;18.80;58.60;;;;;;5059142;28;1271;-71
2022/12/07 00:03:14;;;;;;;;;;;18.80;58.70;;;;;;5060925;28;859;-71
2022/12/07 00:05:39;;;;;;;;;;;18.80;58.70;;;;;;5058187;28;1985;-71
2022/12/07 00:08:05;;;;;;;;;;;18.80;58.70;;;;;;5040919;28;1315;-71
2022/12/07 00:10:32;;;;;;;;;;;18.80;58.70;;;;;;5056142;28;1314;-71
2022/12/07 00:12:58;;;;;;;;;;;18.80;58.70;;;;;;5063671;28;1044;-72
2022/12/07 00:15:23;;;;;;;;;;;18.80;58.70;;;;;;5061197;28;1278;-72
2022/12/07 00:17:49;;;;;;;;;;;18.80;58.70;;;;;;5058275;28;842;-72
2022/12/07 00:20:14;;;;;;;;;;;18.80;58.70;;;;;;5059153;28;1212;-72
2022/12/07 00:22:40;;;;;;;;;;;18.80;58.70;;;;;;5061190;28;1006;-72
2022/12/07 00:25:05;;;;;;;;;;;18.80;58.80;;;;;;5058942;28;1914;-71
2022/12/07 00:27:31;;;;;;;;;;;18.80;58.80;;;;;;5044673;28;899;-71
2022/12/07 00:29:56;;;;;;;;;;;18.80;58.80;;;;;;5058102;28;1252;-71
2022/12/07 00:32:22;;;;;;;;;;;18.80;58.80;;;;;;5041728;28;1402;-71
2022/12/07 00:34:47;;;;;;;;;;;18.80;58.80;;;;;;5058316;28;888;-71
2022/12/07 00:37:13;;;;;;;;;;;18.80;58.80;;;;;;5058153;28;863;-71
2022/12/07 00:39:38;;;;;;;;;;;18.80;58.80;;;;;;5058318;28;1367;-71
2022/12/07 00:42:03;;;;;;;;;;;18.80;58.80;;;;;;5057259;28;986;-71
2022/12/07 00:44:29;;;;;;;;;;;18.80;58.80;;;;;;5058580;28;1959;-71
2022/12/07 00:46:55;;;;;;;;;;;18.80;58.80;;;;;;5057193;28;800;-71
2022/12/07 00:49:21;;;;;;;;;;;18.80;58.90;;;;;;5059507;28;1243;-71
2022/12/07 00:51:47;;;;;;;;;;;18.80;58.90;;;;;;5050103;28;911;-72
2022/12/07 00:54:13;;;;;;;;;;;18.70;58.80;;;;;;5055865;28;975;-71
2022/12/07 00:56:38;;;;;;;;;;;18.80;58.90;;;;;;5057682;28;1010;-72
2022/12/07 00:59:04;;;;;;;;;;;18.70;58.80;;;;;;5055545;28;1343;-71
2022/12/07 01:01:31;;;;;;;;;;;18.70;58.80;;;;;;5055732;28;891;-71
2022/12/07 01:03:56;;;;;;;;;;;18.70;58.80;;;;;;5037019;28;1956;-71
2022/12/07 01:06:22;;;;;;;;;;;18.80;58.90;;;;;;5039555;28;904;-71
2022/12/07 01:08:47;;;;;;;;;;;18.70;58.90;;;;;;5037757;28;1339;-71
2022/12/07 01:11:14;;;;;;;;;;;18.70;58.90;;;;;;5049786;28;915;-72
2022/12/07 01:13:39;;;;;;;;;;;18.70;58.90;;;;;;5041269;28;1125;-71
2022/12/07 01:16:05;;;;;;;;;;;18.70;58.90;;;;;;5058746;28;845;-71
2022/12/07 01:18:31;;;;;;;;;;;18.70;58.90;;;;;;5037791;28;867;-71
2022/12/07 01:21:07;;;;;;;;;;;18.70;58.90;;;;;;5058569;28;1335;-71
2022/12/07 01:23:33;;;;;;;;;;;18.70;58.90;;;;;;5050664;28;802;-71
2022/12/07 01:25:58;;;;;;;;;;;18.70;58.90;;;;;;5041494;28;1959;-71
2022/12/07 01:28:24;;;;;;;;;;;18.70;58.90;;;;;;5057606;28;876;-71
2022/12/07 01:30:59;;;;;;;;;;;18.70;58.90;;;;;;5040283;28;1712;-71
2022/12/07 01:33:26;;;;;;;;;;;18.70;58.90;;;;;;5060614;28;855;-71
2022/12/07 01:35:51;;;;;;;;;;;18.70;58.90;;;;;;5055983;28;1069;-71
2022/12/07 01:38:17;;;;;;;;;;;18.70;59.50;;;;;;5056404;28;812;-71
2022/12/07 01:40:42;;;;;;;;;;;18.70;59.00;;;;;;5060192;28;1683;-71
2022/12/07 01:43:17;;;;;;;;;;;18.70;59.00;;;;;;5058522;28;963;-71
2022/12/07 01:45:43;;;;;;;;;;;18.70;59.00;;;;;;5061178;28;1955;-71
2022/12/07 01:48:08;;;;;;;;;;;18.70;59.00;;;;;;5061457;28;1375;-71
2022/12/07 01:50:34;;;;;;;;;;;18.70;59.00;;;;;;5030754;28;1629;-71
2022/12/07 01:53:00;;;;;;;;;;;18.70;59.00;;;;;;5057644;28;900;-71
2022/12/07 01:55:25;;;;;;;;;;;18.70;59.00;;;;;;5034913;28;1651;-71
2022/12/07 01:57:51;;;;;;;;;;;18.70;59.00;;;;;;5040421;28;1481;-72
2022/12/07 02:00:17;;;;;;;;;;;18.70;59.00;;;;;;5043054;28;1287;-71
2022/12/07 02:02:47;;;;;;;;;;;18.70;59.00;;;;;;5062556;28;815;-71
2022/12/07 02:05:13;;;;;;;;;;;18.70;59.00;;;;;;5043206;28;1898;-71
2022/12/07 02:07:38;;;;;;;;;;;18.60;59.00;;;;;;5061365;28;978;-71
2022/12/07 02:10:23;;;;;;;;;;;18.60;59.00;;;;;;5057628;28;1241;-71
2022/12/07 02:12:49;;;;;;;;;;;18.70;59.10;;;;;;5042892;28;907;-71
2022/12/07 02:15:15;;;;;;;;;;;18.70;59.10;;;;;;5060584;28;1271;-71
2022/12/07 02:17:52;;;;;;;;;;;18.70;59.10;;;;;;5044030;28;839;-71
2022/12/07 02:20:18;;;;;;;;;;;18.70;59.10;;;;;;5044942;28;1426;-71
2022/12/07 02:22:46;;;;;;;;;;;18.70;59.10;;;;;;5059044;28;944;-71
2022/12/07 02:25:30;;;;;;;;;;;18.70;59.10;;;;;;5052487;28;1961;-71
2022/12/07 02:27:56;;;;;;;;;;;18.60;59.10;;;;;;5058043;28;1125;-71
2022/12/07 02:30:22;;;;;;;;;;;18.70;59.10;;;;;;5040920;28;1400;-71
2022/12/07 02:32:52;;;;;;;;;;;18.70;59.10;;;;;;5035034;28;1292;-71
2022/12/07 02:35:24;;;;;;;;;;;18.70;59.10;;;;;;5040641;28;1027;-71
2022/12/07 02:37:49;;;;;;;;;;;18.60;59.10;;;;;;5060911;28;880;-71
2022/12/07 02:40:27;;;;;;;;;;;18.70;59.10;;;;;;5057979;28;1333;-71
2022/12/07 02:43:13;;;;;;;;;;;18.70;59.20;;;;;;5051985;28;1066;-71
2022/12/07 02:45:38;;;;;;;;;;;18.60;59.10;;;;;;5058812;28;1973;-71
2022/12/07 02:48:04;;;;;;;;;;;18.60;59.10;;;;;;5041311;28;931;-71
2022/12/07 02:50:29;;;;;;;;;;;18.60;59.10;;;;;;5058972;28;1280;-71
2022/12/07 02:52:55;;;;;;;;;;;18.60;59.10;;;;;;5059235;28;804;-71
2022/12/07 02:55:26;;;;;;;;;;;18.60;59.10;;;;;;5043033;28;825;-72
2022/12/07 02:57:51;;;;;;;;;;;18.60;59.10;;;;;;5043053;28;1221;-71
2022/12/07 03:00:19;;;;;;;;;;;18.60;59.10;;;;;;5063997;28;1393;-73
2022/12/07 03:02:48;;;;;;;;;;;18.60;59.10;;;;;;5042295;28;1350;-72
2022/12/07 03:05:32;;;;;;;;;;;18.60;59.10;;;;;;5061351;28;1945;-72
2022/12/07 03:08:08;;;;;;;;;;;18.60;59.10;;;;;;5061399;28;1584;-71
2022/12/07 03:10:43;;;;;;;;;;;18.60;59.20;;;;;;5045722;28;1402;-72
2022/12/07 03:13:15;;;;;;;;;;;18.60;59.20;;;;;;5064618;28;1276;-71
2022/12/07 03:15:47;;;;;;;;;;;18.60;59.20;;;;;;5045078;28;1370;-71
2022/12/07 03:18:13;;;;;;;;;;;18.60;59.10;;;;;;5061483;28;1422;-70
2022/12/07 03:20:38;;;;;;;;;;;18.60;59.80;;;;;;5043391;28;1641;-71
2022/12/07 03:23:04;;;;;;;;;;;18.60;59.20;;;;;;5037813;28;961;-71
2022/12/07 03:25:30;;;;;;;;;;;18.60;59.20;;;;;;5026823;28;1905;-71
2022/12/07 03:27:57;;;;;;;;;;;18.60;59.20;;;;;;5041987;28;897;-71
2022/12/07 03:30:23;;;;;;;;;;;18.60;59.20;;;;;;5044454;28;1282;-71
2022/12/07 03:32:48;;;;;;;;;;;18.60;59.20;;;;;;5051204;28;803;-71
2022/12/07 03:35:16;;;;;;;;;;;18.60;59.20;;;;;;5059640;28;847;-71
2022/12/07 03:38:08;;;;;;;;;;;18.60;59.20;;;;;;5059971;28;839;-71
2022/12/07 03:40:35;;;;;;;;;;;18.60;59.20;;;;;;5055960;28;1381;-71
2022/12/07 03:43:01;;;;;;;;;;;18.60;59.20;;;;;;5040629;28;860;-71
2022/12/07 03:45:37;;;;;;;;;;;18.60;59.10;;;;;;5057636;28;1969;-71
2022/12/07 03:48:07;;;;;;;;;;;18.60;59.10;;;;;;5039188;28;1339;-70
2022/12/07 03:51:08;;;;;;;;;;;18.60;59.10;;;;;;5041175;28;1373;-70
2022/12/07 03:53:44;;;;;;;;;;;18.60;59.10;;;;;;4980096;28;1242;-70
2022/12/07 03:56:10;;;;;;;;;;;18.60;59.10;;;;;;5035525;28;1042;-70
2022/12/07 03:58:35;;;;;;;;;;;18.60;59.10;;;;;;5030656;28;1382;-70
2022/12/07 04:01:01;;;;;;;;;;;18.60;59.10;;;;;;5041157;28;1365;-70
2022/12/07 04:03:26;;;;;;;;;;;18.60;59.10;;;;;;5058332;28;966;-70
2022/12/07 04:05:52;;;;;;;;;;;18.60;59.10;;;;;;5055187;28;1917;-71
2022/12/07 04:08:17;;;;;;;;;;;18.60;59.10;;;;;;5060826;28;1074;-71
2022/12/07 04:10:42;;;;;;;;;;;18.60;59.10;;;;;;5059556;28;1263;-73
2022/12/07 04:13:08;;;;;;;;;;;18.60;59.10;;;;;;5041369;28;1071;-73
2022/12/07 04:15:33;;;;;;;;;;;18.60;59.00;;;;;;5059136;28;906;-72
2022/12/07 04:17:59;;;;;;;;;;;18.60;59.10;;;;;;5058043;28;923;-72
2022/12/07 04:20:24;;;;;;;;;;;18.60;59.10;;;;;;5057741;28;1369;-73
2022/12/07 04:22:50;;;;;;;;;;;18.60;59.10;;;;;;5057479;28;895;-73
2022/12/07 04:25:15;;;;;;;;;;;18.60;59.10;;;;;;5060572;28;1965;-73
2022/12/07 04:27:41;;;;;;;;;;;18.60;59.10;;;;;;5039324;28;1078;-73
2022/12/07 04:30:07;;;;;;;;;;;18.60;59.10;;;;;;5059276;28;1282;-73
2022/12/07 04:32:32;;;;;;;;;;;18.60;59.10;;;;;;5062760;28;903;-73
2022/12/07 04:34:57;;;;;;;;;;;18.60;59.10;;;;;;5037271;28;876;-73
2022/12/07 04:37:23;;;;;;;;;;;18.60;59.10;;;;;;5057512;28;854;-71
2022/12/07 04:39:49;;;;;;;;;;;18.60;59.70;;;;;;5039375;28;1255;-72
2022/12/07 04:42:14;;;;;;;;;;;18.60;59.10;;;;;;5057636;28;849;-72
2022/12/07 04:44:40;;;;;;;;;;;18.60;59.10;;;;;;5061095;28;1898;-72
2022/12/07 04:47:05;;;;;;;;;;;18.60;59.70;;;;;;5054718;28;1065;-72
2022/12/07 04:49:30;;;;;;;;;;;18.60;59.10;;;;;;5058545;28;1290;-72
2022/12/07 04:51:56;;;;;;;;;;;18.60;59.10;;;;;;5058535;28;936;-72
2022/12/07 04:54:21;;;;;;;;;;;18.60;59.70;;;;;;5058698;28;789;-72
2022/12/07 04:56:47;;;;;;;;;;;18.60;59.20;;;;;;5042573;28;966;-72
2022/12/07 04:59:12;;;;;;;;;;;18.60;59.20;;;;;;5060226;28;1263;-72
2022/12/07 05:01:38;;;;;;;;;;;18.60;59.20;;;;;;5057013;28;860;-72
2022/12/07 05:04:03;;;;;;;;;;;18.60;59.20;;;;;;5040166;28;1961;-72
2022/12/07 05:06:29;;;;;;;;;;;18.60;59.20;;;;;;5056611;28;1042;-72
2022/12/07 05:08:54;;;;;;;;;;;18.50;59.10;;;;;;5058024;28;1319;-72
2022/12/07 05:11:38;;;;;;;;;;;18.60;59.20;;;;;;5056435;28;907;-72
2022/12/07 05:14:04;;;;;;;;;;;18.60;59.20;;;;;;5059117;28;1289;-72
2022/12/07 05:16:30;;;;;;;;;;;18.60;59.20;;;;;;5043448;28;954;-72
2022/12/07 05:18:55;;;;;;;;;;;18.60;59.10;;;;;;5061504;28;1256;-72
2022/12/07 05:21:21;;;;;;;;;;;18.60;59.00;;;;;;5063552;28;927;-71
2022/12/07 05:23:46;;;;;;;;;;;18.60;59.00;;;;;;5043650;28;986;-71
2022/12/07 05:26:12;;;;;;;;;;;18.60;58.90;;;;;;5061645;28;1369;-71
2022/12/07 05:28:37;;;;;;;;;;;18.70;58.90;;;;;;5043404;28;950;-69
2022/12/07 05:31:03;;;;;;;;;;;18.70;58.80;;;;;;5061277;28;1270;-70
2022/12/07 05:33:28;;;;;;;;;;;18.80;58.80;;;;;;5063475;28;797;-70
2022/12/07 05:35:54;;;;;;;;;;;18.80;58.70;;;;;;5045127;28;895;-70
2022/12/07 05:38:19;;;;;;;;;;;18.80;58.70;;;;;;5060637;28;1022;-70
2022/12/07 05:40:45;;;;;;;;;;;18.80;58.60;;;;;;5054396;28;1285;-69
2022/12/07 05:43:10;;;;;;;;;;;18.80;58.50;;;;;;5060878;28;974;-68
2022/12/07 05:45:35;;;;;;;;;;;18.80;58.50;;;;;;5055596;28;1969;-70
2022/12/07 05:48:01;;;;;;;;;;;18.80;59.00;;;;;;5058656;28;2194;-67
2022/12/07 05:50:27;;;;;;;;;;;18.90;58.40;;;;;;5060975;28;1411;-70
2022/12/07 05:52:53;;;;;;;;;;;18.90;58.40;;;;;;5042610;28;1472;-71
2022/12/07 05:55:18;;;;;;;;;;;18.90;58.30;;;;;;5058648;28;796;-70
2022/12/07 05:59:22;;;;;;;;;;;18.90;58.30;;;;;;5064104;28;875;-69
2022/12/07 06:00:29;;;;;;;;;;;18.90;58.30;;;;;;5058748;28;1281;-69
2022/12/07 06:02:54;;;;;;;;;;;18.90;58.30;;;;;;5054771;28;876;-69
2022/12/07 06:05:20;;;;;;;;;;;18.90;58.30;;;;;;5058102;28;1910;-69
2022/12/07 06:07:45;;;;;;;;;;;18.90;58.30;;;;;;5058235;28;1002;-70
2022/12/07 06:10:11;;;;;;;;;;;18.90;58.20;;;;;;5062900;28;1258;-68
2022/12/07 06:12:39;;;;;;;;;;;19.00;58.20;;;;;;5061735;28;1032;-69
2022/12/07 06:15:05;;;;;;;;;;;19.00;58.10;;;;;;5042812;28;1370;-69
2022/12/07 06:17:30;;;;;;;;;;;19.10;57.90;;;;;;5058024;28;1109;-69
2022/12/07 06:19:56;;;;;;;;;;;19.30;57.90;;;;;;5052382;28;1295;-69
2022/12/07 06:22:21;;;;;;;;;;;19.40;57.80;;;;;;5062115;28;900;-69
2022/12/07 06:24:47;;;;;;;;;;;19.50;57.70;;;;;;5057895;28;1906;-69
2022/12/07 06:27:12;;;;;;;;;;;19.60;57.50;;;;;;5059682;28;1271;-71
2022/12/07 06:29:38;;;;;;;;;;;19.70;57.20;;;;;;5061963;28;1277;-71
2022/12/07 06:32:03;;;;;;;;;;;19.80;57.00;;;;;;5059190;28;880;-71
2022/12/07 06:34:29;;;;;;;;;;;19.90;56.80;;;;;;5062568;28;1009;-72
2022/12/07 06:36:54;;;;;;;;;;;20.00;56.60;;;;;;5069033;28;840;-71
2022/12/07 06:39:24;;;;;;;;;;;20.20;56.40;;;;;;5046113;28;1386;-71
2022/12/07 06:41:51;;;;;;;;;;;20.20;56.20;;;;;;5044259;28;886;-71
2022/12/07 06:44:17;;;;;;;;;;;20.30;56.00;;;;;;5063945;28;1975;-71
2022/12/07 06:46:42;;;;;;;;;;;20.40;55.80;;;;;;5041548;28;1275;-71
2022/12/07 06:49:08;;;;;;;;;;;20.50;55.70;;;;;;5044181;28;1414;-69
2022/12/07 06:51:35;;;;;;;;;;;20.50;55.50;;;;;;5055017;28;1057;-70
2022/12/07 06:54:00;;;;;;;;;;;20.60;55.30;;;;;;5053513;28;855;-70
2022/12/07 06:56:26;;;;;;;;;;;20.60;55.20;;;;;;5038035;28;1195;-69
2022/12/07 06:58:51;;;;;;;;;;;20.70;55.20;;;;;;5066655;28;1251;-69
2022/12/07 07:01:17;;;;;;;;;;;20.70;55.10;;;;;;5044951;28;998;-70
2022/12/07 07:03:42;;;;;;;;;;;20.70;55.00;;;;;;5066725;28;1186;-70
2022/12/07 07:06:08;;;;;;;;;;;20.70;55.00;;;;;;5074054;28;2035;-71
2022/12/07 07:08:34;;;;;;;;;;;20.70;55.00;;;;;;5041936;28;1038;-69
2022/12/07 07:10:59;;;;;;;;;;;20.70;55.00;;;;;;5054238;28;1207;-69
2022/12/07 07:13:25;;;;;;;;;;;20.70;55.00;;;;;;5069743;28;866;-69
2022/12/07 07:15:50;;;;;;;;;;;20.70;55.10;;;;;;5044512;28;1002;-70
2022/12/07 07:18:16;;;;;;;;;;;20.70;55.10;;;;;;5057247;28;857;-71
2022/12/07 07:20:41;;;;;;;;;;;20.70;55.20;;;;;;5065858;28;1280;-71
2022/12/07 07:23:07;;;;;;;;;;;20.70;55.20;;;;;;5064038;28;808;-71
2022/12/07 07:25:32;;;;;;;;;;;20.70;55.20;;;;;;5043060;28;1898;-72
2022/12/07 07:27:58;;;;;;;;;;;20.70;55.20;;;;;;5042146;28;878;-70
2022/12/07 07:30:23;;;;;;;;;;;20.70;55.20;;;;;;5061810;28;1285;-70
2022/12/07 07:32:49;;;;;;;;;;;20.70;55.20;;;;;;5042594;28;843;-70
2022/12/07 07:35:14;;;;;;;;;;;20.60;55.20;;;;;;5034811;28;1320;-70
2022/12/07 07:37:40;;;;;;;;;;;20.60;55.30;;;;;;5057954;28;795;-69
2022/12/07 07:40:06;;;;;;;;;;;20.60;55.30;;;;;;5059797;28;1340;-71
2022/12/07 07:42:32;;;;;;;;;;;20.60;55.40;;;;;;5060550;28;1061;-72
2022/12/07 07:44:57;;;;;;;;;;;20.60;55.30;;;;;;5060344;28;1914;-70
2022/12/07 07:47:23;;;;;;;;;;;20.60;55.40;;;;;;5042355;28;912;-72
2022/12/07 07:49:48;;;;;;;;;;;20.60;55.40;;;;;;5042519;28;1292;-71
2022/12/07 07:52:14;;;;;;;;;;;20.60;55.50;;;;;;5057959;28;864;-71
2022/12/07 07:54:39;;;;;;;;;;;20.50;55.50;;;;;;5044297;28;1344;-71
2022/12/07 07:57:04;;;;;;;;;;;20.50;55.50;;;;;;5059452;28;899;-72
2022/12/07 07:59:30;;;;;;;;;;;20.50;55.60;;;;;;5058111;28;1277;-72
2022/12/07 08:01:55;;;;;;;;;;;20.50;55.70;;;;;;5061122;28;902;-72
2022/12/07 08:04:21;;;;;;;;;;;20.40;55.70;;;;;;5065637;28;1894;-72
2022/12/07 08:06:46;;;;;;;;;;;20.40;55.70;;;;;;5061678;28;828;-72
2022/12/07 08:09:12;;;;;;;;;;;20.40;55.80;;;;;;5062477;28;1243;-71
2022/12/07 08:11:37;;;;;;;;;;;20.40;55.90;;;;;;5057942;28;875;-72
2022/12/07 08:14:03;;;;;;;;;;;20.40;55.90;;;;;;5058725;28;1275;-71
2022/12/07 08:16:28;;;;;;;;;;;20.40;55.90;;;;;;5055584;28;1006;-71
2022/12/07 08:18:54;;;;;;;;;;;20.30;55.90;;;;;;5055507;28;1309;-71
2022/12/07 08:21:19;;;;;;;;;;;20.30;56.00;;;;;;5059370;28;1929;-70
2022/12/07 08:23:45;;;;;;;;;;;20.30;56.00;;;;;;5043849;28;1978;-70
2022/12/07 08:26:11;;;;;;;;;;;20.30;56.00;;;;;;5057994;28;1969;-69
2022/12/07 08:28:36;;;;;;;;;;;20.30;56.00;;;;;;5044697;28;1953;-69
2022/12/07 08:31:03;;;;;;;;;;;20.30;56.10;;;;;;5058670;28;1390;-70
2022/12/07 08:33:28;;;;;;;;;;;20.20;56.10;;;;;;5037883;28;1030;-70
2022/12/07 08:35:54;;;;;;;;;;;20.20;56.10;;;;;;5059291;28;881;-70
2022/12/07 08:38:19;;;;;;;;;;;20.20;56.10;;;;;;5058723;28;884;-70
2022/12/07 08:40:45;;;;;;;;;;;20.20;56.20;;;;;;5057295;28;1276;-70
2022/12/07 08:43:10;;;;;;;;;;;20.20;56.20;;;;;;5040169;28;1200;-70
2022/12/07 08:45:36;;;;;;;;;;;20.20;56.20;;;;;;5056753;28;1902;-70
2022/12/07 08:48:02;;;;;;;;;;;20.20;56.30;;;;;;5058714;28;894;-70
2022/12/07 08:50:28;;;;;;;;;;;20.20;56.20;;;;;;5056803;28;1280;-70
2022/12/07 08:52:54;;;;;;;;;;;20.10;56.30;;;;;;5053675;28;868;-70
2022/12/07 08:55:20;;;;;;;;;;;20.20;56.30;;;;;;5040353;28;1077;-70
2022/12/07 08:57:45;;;;;;;;;;;20.10;56.30;;;;;;5039281;28;818;-70
2022/12/07 09:00:11;;;;;;;;;;;20.10;56.30;;;;;;5056220;28;1232;-70
2022/12/07 09:02:37;;;;;;;;;;;20.10;56.40;;;;;;5057161;28;846;-70
2022/12/07 09:05:02;;;;;;;;;;;20.10;56.40;;;;;;5061008;28;1890;-70
2022/12/07 09:07:28;;;;;;;;;;;20.10;56.40;;;;;;5056950;28;1018;-70
2022/12/07 09:09:54;;;;;;;;;;;20.10;56.40;;;;;;5038147;28;1345;-70
2022/12/07 09:12:19;;;;;;;;;;;20.00;56.40;;;;;;5058661;28;809;-70
2022/12/07 09:14:45;;;;;;;;;;;20.00;56.50;;;;;;5059637;28;1589;-70
2022/12/07 09:17:11;;;;;;;;;;;20.10;56.50;;;;;;5056511;28;936;-70
2022/12/07 09:19:37;;;;;;;;;;;20.10;56.60;;;;;;5041004;28;1226;-70
2022/12/07 09:22:02;;;;;;;;;;;20.00;56.50;;;;;;5056681;28;966;-70
2022/12/07 09:24:28;;;;;;;;;;;20.00;56.50;;;;;;5058926;28;1906;-70
2022/12/07 09:26:53;;;;;;;;;;;20.00;56.50;;;;;;5057232;28;1303;-70
2022/12/07 09:29:19;;;;;;;;;;;20.00;56.50;;;;;;5049651;28;1284;-70
2022/12/07 09:31:44;;;;;;;;;;;20.00;56.50;;;;;;5054022;28;824;-70
2022/12/07 09:34:10;;;;;;;;;;;20.00;56.50;;;;;;5039886;28;828;-70
2022/12/07 09:36:36;;;;;;;;;;;20.00;56.60;;;;;;5056423;28;857;-70
2022/12/07 09:39:02;;;;;;;;;;;20.00;56.60;;;;;;5060024;28;1279;-70
2022/12/07 09:41:28;;;;;;;;;;;20.00;56.60;;;;;;5043737;28;892;-70
2022/12/07 09:43:54;;;;;;;;;;;20.00;56.70;;;;;;5036840;28;1540;-70
2022/12/07 09:46:19;;;;;;;;;;;20.00;56.70;;;;;;5039519;28;1914;-70
2022/12/07 09:48:45;;;;;;;;;;;20.00;56.70;;;;;;5056451;28;874;-70
2022/12/07 09:51:20;;;;;;;;;;;20.00;56.70;;;;;;5059733;28;1554;-70
2022/12/07 09:53:45;;;;;;;;;;;19.90;56.70;;;;;;5039530;28;1388;-70
2022/12/07 09:56:11;;;;;;;;;;;19.90;56.70;;;;;;5036966;28;843;-70
2022/12/07 09:58:37;;;;;;;;;;;19.90;56.70;;;;;;5036577;28;855;-70
2022/12/07 10:01:09;;;;;;;;;;;19.90;56.80;;;;;;5038721;28;1357;-70
2022/12/07 10:03:38;;;;;;;;;;;19.90;56.80;;;;;;5063872;28;803;-70
2022/12/07 10:06:04;;;;;;;;;;;19.90;56.80;;;;;;5057203;28;1944;-70
2022/12/07 10:08:29;;;;;;;;;;;19.90;56.80;;;;;;5046314;28;935;-70
2022/12/07 10:10:58;;;;;;;;;;;19.90;56.80;;;;;;5062407;28;1180;-70
2022/12/07 10:13:42;;;;;;;;;;;19.90;56.80;;;;;;5058950;28;1364;-70
2022/12/07 10:16:27;;;;;;;;;;;19.80;56.80;;;;;;5041107;28;1495;-70
2022/12/07 10:18:53;;;;;;;;;;;19.90;56.90;;;;;;5060595;28;1266;-70
2022/12/07 10:21:25;;;;;;;;;;;19.80;56.90;;;;;;5041355;28;896;-71
2022/12/07 10:24:03;;;;;;;;;;;19.80;57.00;;;;;;5040554;28;871;-70
2022/12/07 10:26:39;;;;;;;;;;;19.80;57.00;;;;;;5062441;28;1272;-70
2022/12/07 10:29:24;;;;;;;;;;;19.80;57.00;;;;;;5031320;28;1335;-70
2022/12/07 10:31:53;;;;;;;;;;;19.80;57.10;;;;;;5042101;28;866;-70
2022/12/07 10:34:24;;;;;;;;;;;19.80;57.20;;;;;;5042363;28;856;-71
2022/12/07 10:36:50;;;;;;;;;;;19.80;57.20;;;;;;5039515;28;860;-72
2022/12/07 10:39:17;;;;;;;;;;;19.80;57.20;;;;;;5041619;28;1299;-71
2022/12/07 10:41:56;;;;;;;;;;;19.70;57.20;;;;;;5043176;28;917;-70
2022/12/07 10:44:22;;;;;;;;;;;19.70;57.20;;;;;;5052731;28;1910;-70
2022/12/07 10:46:51;;;;;;;;;;;19.70;57.20;;;;;;5059181;28;871;-70
2022/12/07 10:49:36;;;;;;;;;;;19.70;57.20;;;;;;5044979;28;1306;-71
2022/12/07 10:52:19;;;;;;;;;;;19.70;57.30;;;;;;5058549;28;875;-70
2022/12/07 10:54:44;;;;;;;;;;;19.70;57.30;;;;;;5042282;28;1042;-70
2022/12/07 10:57:13;;;;;;;;;;;19.70;57.30;;;;;;5061683;28;771;-70
2022/12/07 10:59:53;;;;;;;;;;;19.60;57.30;;;;;;5063207;28;1501;-70
2022/12/07 11:02:30;;;;;;;;;;;19.60;57.30;;;;;;5058725;28;796;-70
2022/12/07 11:05:05;;;;;;;;;;;19.60;57.40;;;;;;5041590;28;1898;-70
2022/12/07 11:07:33;;;;;;;;;;;19.60;57.40;;;;;;5043710;28;858;-70
2022/12/07 11:10:18;;;;;;;;;;;19.60;57.40;;;;;;5060993;28;1259;-70
2022/12/07 11:12:51;;;;;;;;;;;19.60;57.50;;;;;;5039161;28;1374;-69
2022/12/07 11:15:28;;;;;;;;;;;19.50;57.50;;;;;;5040567;28;1292;-70
2022/12/07 11:18:12;;;;;;;;;;;19.50;57.50;;;;;;5040888;28;809;-70
2022/12/07 11:20:56;;;;;;;;;;;19.50;57.50;;;;;;5058806;28;1260;-70
2022/12/07 11:23:34;;;;;;;;;;;19.60;57.60;;;;;;5058867;28;994;-70
2022/12/07 11:26:02;;;;;;;;;;;19.50;57.60;;;;;;5059011;28;1961;-70
2022/12/07 11:28:35;;;;;;;;;;;19.50;57.60;;;;;;5063513;28;832;-70
2022/12/07 11:31:11;;;;;;;;;;;19.50;57.60;;;;;;5043555;28;1310;-70
2022/12/07 11:33:53;;;;;;;;;;;19.50;57.60;;;;;;5049652;28;955;-70
2022/12/07 11:36:29;;;;;;;;;;;19.50;57.70;;;;;;5039649;28;836;-70
2022/12/07 11:38:58;;;;;;;;;;;19.50;57.70;;;;;;5050463;28;1264;-70
2022/12/07 11:41:26;;;;;;;;;;;19.50;57.70;;;;;;5040841;28;919;-70
2022/12/07 11:44:10;;;;;;;;;;;19.50;57.70;;;;;;5056509;28;843;-70
2022/12/07 11:46:41;;;;;;;;;;;19.50;57.70;;;;;;5047822;28;1456;-70
2022/12/07 11:49:16;;;;;;;;;;;19.50;57.70;;;;;;5058053;28;1271;-70
2022/12/07 11:51:41;;;;;;;;;;;19.50;57.70;;;;;;5058962;28;824;-70
2022/12/07 11:54:15;;;;;;;;;;;19.50;57.70;;;;;;5061636;28;899;-70
2022/12/07 11:56:40;;;;;;;;;;;19.50;57.70;;;;;;5042105;28;876;-70
2022/12/07 11:59:23;;;;;;;;;;;19.50;57.70;;;;;;5058586;28;1276;-71
2022/12/07 12:01:52;;;;;;;;;;;19.50;57.70;;;;;;5050160;28;831;-70
2022/12/07 12:04:22;;;;;;;;;;;19.50;57.80;;;;;;5050884;28;1980;-70
2022/12/07 12:06:47;;;;;;;;;;;19.50;57.70;;;;;;5040987;28;835;-70
2022/12/07 12:09:13;;;;;;;;;;;19.50;58.30;;;;;;5056976;28;1685;-70
2022/12/07 12:11:41;;;;;;;;;;;19.50;57.70;;;;;;5059884;28;1697;-71
2022/12/07 12:14:22;;;;;;;;;;;19.50;57.70;;;;;;5060638;28;1184;-70
2022/12/07 12:17:06;;;;;;;;;;;19.50;57.70;;;;;;5056752;28;856;-70
2022/12/07 12:19:32;;;;;;;;;;;19.50;57.70;;;;;;5059569;28;1232;-70
2022/12/07 12:22:08;;;;;;;;;;;19.50;57.70;;;;;;5051316;28;1397;-70
2022/12/07 12:24:37;;;;;;;;;;;19.50;57.70;;;;;;5037566;28;1933;-70
2022/12/07 12:27:03;;;;;;;;;;;19.50;57.70;;;;;;5041802;28;1375;-70
2022/12/07 12:29:39;;;;;;;;;;;19.50;57.70;;;;;;5040217;28;1258;-70
2022/12/07 12:32:08;;;;;;;;;;;19.50;57.70;;;;;;5039825;28;1014;-70
2022/12/07 12:34:33;;;;;;;;;;;19.50;57.70;;;;;;5037284;28;919;-70
2022/12/07 12:36:59;;;;;;;;;;;19.50;57.70;;;;;;5057338;28;868;-71
2022/12/07 12:39:25;;;;;;;;;;;19.50;57.70;;;;;;5040914;28;1280;-70
2022/12/07 12:44:17;;;;;;;;;;;19.50;57.60;;;;;;5043607;28;1910;-70
2022/12/07 12:46:49;;;;;;;;;;;19.50;57.60;;;;;;5057214;28;849;-70
2022/12/07 12:49:19;;;;;;;;;;;19.50;57.70;;;;;;5060971;28;1267;-70
2022/12/07 12:51:46;;;;;;;;;;;19.50;57.70;;;;;;5056732;28;868;-71
2022/12/07 12:54:19;;;;;;;;;;;19.50;57.60;;;;;;5035971;28;883;-70
2022/12/07 12:56:50;;;;;;;;;;;19.50;57.60;;;;;;5058344;28;898;-71
2022/12/07 12:59:22;;;;;;;;;;;19.50;57.60;;;;;;5024364;28;1378;-71
2022/12/07 13:01:48;;;;;;;;;;;19.50;57.60;;;;;;5055388;28;1562;-70
2022/12/07 13:04:16;;;;;;;;;;;19.50;57.60;;;;;;5058107;28;1906;-71
2022/12/07 13:06:41;;;;;;;;;;;19.50;57.70;;;;;;5048267;28;1018;-70
2022/12/07 13:09:16;;;;;;;;;;;19.40;57.60;;;;;;5042336;28;2001;-71
2022/12/07 13:11:41;;;;;;;;;;;19.50;57.70;;;;;;5037863;28;2198;-71
2022/12/07 13:14:26;;;;;;;;;;;19.50;57.80;;;;;;5061746;28;2002;-71
2022/12/07 13:16:51;;;;;;;;;;;19.40;57.70;;;;;;5059935;28;1470;-70
2022/12/07 13:19:35;;;;;;;;;;;19.40;57.70;;;;;;5061160;28;1345;-68
2022/12/07 13:22:01;;;;;;;;;;;19.40;57.80;;;;;;5058728;28;800;-69
2022/12/07 13:24:26;;;;;;;;;;;19.40;57.80;;;;;;5058524;28;1969;-68
2022/12/07 13:26:52;;;;;;;;;;;19.40;57.80;;;;;;5057015;28;1259;-68
2022/12/07 13:29:20;;;;;;;;;;;19.40;57.90;;;;;;5037908;28;1518;-68
2022/12/07 13:31:45;;;;;;;;;;;19.40;57.90;;;;;;5037813;28;840;-70
2022/12/07 13:34:29;;;;;;;;;;;19.30;57.90;;;;;;5058103;28;888;-70
2022/12/07 13:36:54;;;;;;;;;;;19.30;57.90;;;;;;5061852;28;812;-70
2022/12/07 13:39:22;;;;;;;;;;;19.40;58.00;;;;;;5037515;28;1388;-72
2022/12/07 13:41:51;;;;;;;;;;;19.40;58.00;;;;;;5034273;28;1708;-70
2022/12/07 13:44:17;;;;;;;;;;;19.30;58.00;;;;;;5043618;28;1961;-70
2022/12/07 13:46:44;;;;;;;;;;;19.30;58.00;;;;;;5041298;28;962;-70
2022/12/07 13:49:16;;;;;;;;;;;19.30;58.00;;;;;;5042089;28;2125;-70
2022/12/07 13:51:42;;;;;;;;;;;19.30;58.10;;;;;;5063025;28;1364;-70
2022/12/07 13:54:11;;;;;;;;;;;19.30;58.10;;;;;;5040828;28;1506;-71
2022/12/07 13:56:37;;;;;;;;;;;19.30;58.10;;;;;;5031868;28;1456;-71
2022/12/07 13:59:02;;;;;;;;;;;19.30;58.20;;;;;;5060423;28;1373;-71
2022/12/07 14:01:30;;;;;;;;;;;19.30;58.20;;;;;;5051737;28;1394;-70
2022/12/07 14:03:55;;;;;;;;;;;19.30;58.20;;;;;;5042752;28;1464;-71
2022/12/07 14:06:20;;;;;;;;;;;19.30;58.20;;;;;;5062806;28;1966;-70
2022/12/07 14:08:46;;;;;;;;;;;19.20;58.20;;;;;;5063794;28;909;-71
2022/12/07 14:11:18;;;;;;;;;;;19.20;58.30;;;;;;5053200;28;1491;-71
2022/12/07 14:13:45;;;;;;;;;;;19.20;58.30;;;;;;5043265;28;1376;-70
2022/12/07 14:16:29;;;;;;;;;;;19.20;58.30;;;;;;5059548;28;828;-70
2022/12/07 14:18:55;;;;;;;;;;;19.20;58.30;;;;;;5051599;28;1365;-70
2022/12/07 14:21:23;;;;;;;;;;;19.20;58.40;;;;;;5058415;28;884;-71
2022/12/07 14:24:07;;;;;;;;;;;19.20;58.40;;;;;;5052276;28;871;-71
2022/12/07 14:26:32;;;;;;;;;;;19.20;58.40;;;;;;5060713;28;1930;-71
2022/12/07 14:29:17;;;;;;;;;;;19.20;58.40;;;;;;5059399;28;1874;-70
2022/12/07 14:31:42;;;;;;;;;;;19.20;58.40;;;;;;5063523;28;1329;-71
2022/12/07 14:34:11;;;;;;;;;;;19.20;58.50;;;;;;5048413;28;959;-72
2022/12/07 14:36:36;;;;;;;;;;;19.20;58.50;;;;;;5042779;28;887;-72
2022/12/07 14:39:02;;;;;;;;;;;19.20;58.50;;;;;;5058394;28;1251;-71
2022/12/07 14:44:12;;;;;;;;;;;19.10;58.50;;;;;;5063184;28;1894;-71
2022/12/07 14:46:37;;;;;;;;;;;19.10;58.50;;;;;;5058418;28;796;-71